createdAt,value
2022-12-01T00:05:38.537Z,102595.00
2022-12-01T00:16:10.808Z,102588.00
2022-12-01T00:26:32.333Z,102596.00
2022-12-01T00:36:55.181Z,102591.00
2022-12-01T00:47:18.006Z,102591.00
2022-12-01T00:57:41.255Z,102608.00
2022-12-01T01:08:02.759Z,102603.00
2022-12-01T01:18:26.048Z,102598.00
2022-12-01T01:28:48.122Z,102617.00
2022-12-01T01:39:11.459Z,102608.00
2022-12-01T01:49:33.211Z,102610.00
2022-12-01T02:00:00.296Z,102603.00
2022-12-01T02:10:25.279Z,102602.00
2022-12-01T02:21:17.289Z,102591.00
2022-12-01T02:31:44.511Z,102595.00
2022-12-01T02:42:32.120Z,102592.00
2022-12-01T03:03:34.681Z,102578.00
2022-12-01T03:14:09.385Z,102583.00
2022-12-01T03:24:33.723Z,102580.00
2022-12-01T03:34:58.396Z,102592.00
2022-12-01T03:45:27.960Z,102591.00
2022-12-01T03:55:55.776Z,102583.00
2022-12-01T04:06:19.199Z,102593.00
2022-12-01T04:16:42.410Z,102591.00
2022-12-01T04:27:05.279Z,102592.00
2022-12-01T04:37:26.650Z,102589.00
2022-12-01T04:47:51.296Z,102599.00
2022-12-01T04:58:12.908Z,102613.00
2022-12-01T05:08:37.690Z,102618.00
2022-12-01T05:19:19.271Z,102625.00
2022-12-01T05:29:42.180Z,102628.00
2022-12-01T05:40:03.790Z,102628.00
2022-12-01T05:50:28.244Z,102639.00
2022-12-01T06:00:50.512Z,102632.00
2022-12-01T06:11:15.965Z,102639.00
2022-12-01T06:21:38.800Z,102638.00
2022-12-01T06:32:02.042Z,102642.00
2022-12-01T06:42:24.112Z,102649.00
2022-12-01T06:52:47.827Z,102653.00
2022-12-01T07:03:12.429Z,102657.00
2022-12-01T07:13:36.364Z,102656.00
2022-12-01T07:23:58.238Z,102674.00
2022-12-01T07:34:22.806Z,102671.00
2022-12-01T07:44:46.407Z,102688.00
2022-12-01T07:55:09.920Z,102692.00
2022-12-01T08:05:31.769Z,102690.00
2022-12-01T08:15:57.269Z,102685.00
2022-12-01T08:26:20.568Z,102704.00
2022-12-01T08:36:53.398Z,102697.00
2022-12-01T08:47:18.724Z,102700.00
2022-12-01T08:57:42.479Z,102697.00
2022-12-01T09:08:21.626Z,102708.00
2022-12-01T09:18:45.942Z,102703.00
2022-12-01T09:29:09.782Z,102707.00
2022-12-01T09:39:32.563Z,102698.00
2022-12-01T09:50:00.199Z,102697.00
2022-12-01T10:00:25.385Z,102688.00
2022-12-01T10:10:48.902Z,102679.00
2022-12-01T10:21:20.793Z,102677.00
2022-12-01T10:31:53.718Z,102663.00
2022-12-01T10:42:20.265Z,102665.00
2022-12-01T10:52:42.977Z,102678.00
2022-12-01T11:03:06.436Z,102660.00
2022-12-01T11:13:30.382Z,102661.00
2022-12-01T11:23:54.689Z,102653.00
2022-12-01T11:34:20.974Z,102650.00
2022-12-01T11:44:52.085Z,102643.00
2022-12-01T11:55:22.841Z,102653.00
2022-12-01T12:06:31.939Z,102646.00
2022-12-01T12:16:59.770Z,102644.00
2022-12-01T12:27:38.640Z,102634.00
2022-12-01T12:38:08.989Z,102621.00
2022-12-01T12:49:11.588Z,102635.00
2022-12-01T12:59:35.243Z,102635.00
2022-12-01T13:10:01.679Z,102627.00
2022-12-01T13:20:27.584Z,102622.00
2022-12-01T13:31:03.281Z,102618.00
2022-12-01T13:41:28.296Z,102628.00
2022-12-01T13:52:28.074Z,102630.00
2022-12-01T14:03:38.561Z,102623.00
2022-12-01T14:14:11.547Z,102624.00
2022-12-01T14:24:36.019Z,102628.00
2022-12-01T14:35:14.867Z,102620.00
2022-12-01T14:45:47.760Z,102612.00
2022-12-01T14:56:15.039Z,102618.00
2022-12-01T15:06:37.645Z,102605.00
2022-12-01T15:18:41.002Z,102595.00
2022-12-01T15:41:27.488Z,102604.00
2022-12-01T15:51:33.090Z,102604.00
2022-12-01T16:02:02.606Z,102605.00
2022-12-01T16:25:49.962Z,102594.00
2022-12-01T17:00:37.562Z,102620.00
2022-12-01T18:08:11.013Z,102597.00
2022-12-01T18:18:32.952Z,102604.00
2022-12-01T18:28:57.201Z,102593.00
2022-12-01T18:39:19.040Z,102599.00
2022-12-01T18:49:43.690Z,102591.00
2022-12-01T19:00:10.066Z,102585.00
2022-12-01T19:10:33.348Z,102587.00
2022-12-01T19:20:54.778Z,102586.00
2022-12-01T19:31:20.311Z,102579.00
2022-12-01T19:41:42.186Z,102581.00
2022-12-01T19:52:06.591Z,102573.00
2022-12-01T20:02:29.499Z,102596.00
2022-12-01T20:12:53.722Z,102587.00
2022-12-01T20:23:15.534Z,102601.00
2022-12-01T20:33:38.968Z,102600.00
2022-12-01T20:44:06.696Z,102586.00
2022-12-01T20:54:31.123Z,102592.00
2022-12-01T21:04:56.338Z,102586.00
2022-12-01T21:15:26.682Z,102595.00
2022-12-01T21:25:51.184Z,102590.00
2022-12-01T21:36:18.822Z,102584.00
2022-12-01T21:46:42.267Z,102577.00
2022-12-01T21:57:24.838Z,102566.00
2022-12-01T22:07:46.390Z,102560.00
2022-12-01T22:18:20.184Z,102559.00
2022-12-01T22:28:43.901Z,102556.00
2022-12-01T22:39:25.023Z,102563.00
2022-12-01T22:49:47.021Z,102549.00
2022-12-01T23:00:17.775Z,102551.00
2022-12-01T23:10:40.534Z,102543.00
2022-12-01T23:21:03.928Z,102533.00
2022-12-01T23:31:26.292Z,102533.00
2022-12-01T23:41:51.224Z,102514.00
2022-12-01T23:52:17.339Z,102517.00
